Time;durP1;ratioP1;P1;durP2;ratioP2;P2;SDS_P1;SDS_P2;PMS_P1;PMS_P2;Temp;Humidity;BMP_temperature;BMP_pressure;BME280_temperature;BME280_humidity;BME280_pressure;Samples;Min_cycle;Max_cycle;Signal;HPM_P1;HPM_P2
2023/02/04 00:01:20;;;;;;;13.75;4.25;;;;;;;6.86;93.24;103570.34;6097779;19;20015;-74
2023/02/04 00:03:25;;;;;;;19.40;4.95;;;;;;;6.86;93.72;103567.72;6103067;19;20007;-75
2023/02/04 00:05:32;;;;;;;24.23;6.32;;;;;;;6.85;93.82;103565.97;6100823;19;20015;-74
2023/02/04 00:07:38;;;;;;;17.35;5.03;;;;;;;6.86;93.95;103559.88;6106031;19;20025;-74
2023/02/04 00:09:46;;;;;;;26.83;6.43;;;;;;;6.89;94.09;103566.91;6097832;19;20019;-75
2023/02/04 00:11:51;;;;;;;22.02;5.72;;;;;;;6.88;94.08;103573.88;6105319;19;20022;-75
2023/02/04 00:13:56;;;;;;;18.17;5.03;;;;;;;6.87;94.22;103571.22;6110416;19;20025;-74
2023/02/04 00:16:01;;;;;;;21.40;5.43;;;;;;;6.87;94.12;103563.38;6103976;19;20024;-74
2023/02/04 00:18:06;;;;;;;23.77;5.65;;;;;;;6.88;93.82;103570.38;6104216;19;20433;-74
2023/02/04 00:20:15;;;;;;;17.83;5.38;;;;;;;6.85;93.78;103572.94;6105617;19;20019;-74
2023/02/04 00:22:22;;;;;;;24.50;4.93;;;;;;;6.90;93.65;103566.03;6108654;19;20018;-75
2023/02/04 00:24:27;;;;;;;21.92;5.28;;;;;;;6.84;93.72;103569.41;6105358;19;20011;-75
2023/02/04 00:26:32;;;;;;;18.23;5.05;;;;;;;6.91;93.78;103573.91;6104635;19;20019;-75
2023/02/04 00:28:39;;;;;;;15.15;4.28;;;;;;;6.89;93.81;103564.28;6109104;19;20011;-75
2023/02/04 00:30:46;;;;;;;20.55;5.75;;;;;;;6.89;93.81;103573.00;6106126;19;20036;-75
2023/02/04 00:32:53;;;;;;;21.58;4.63;;;;;;;6.86;93.97;103562.50;6109091;19;20010;-75
2023/02/04 00:35:00;;;;;;;18.60;4.72;;;;;;;6.87;94.00;103569.47;6108771;19;20018;-75
2023/02/04 00:37:05;;;;;;;12.73;4.28;;;;;;;6.88;93.92;103565.16;6107335;19;20015;-75
2023/02/04 00:39:13;;;;;;;15.30;5.15;;;;;;;6.89;93.99;103569.50;6107997;19;20018;-75
2023/02/04 00:41:18;;;;;;;19.80;4.80;;;;;;;6.89;93.79;103570.38;6109016;19;20015;-75
2023/02/04 00:43:23;;;;;;;12.43;4.40;;;;;;;6.90;93.88;103571.25;6109390;19;20030;-75
2023/02/04 00:45:28;;;;;;;16.30;4.35;;;;;;;6.87;94.37;103569.47;6107883;19;20018;-75
2023/02/04 00:47:33;;;;;;;15.23;5.78;;;;;;;6.88;93.98;103576.47;6107334;19;20028;-75
2023/02/04 00:49:40;;;;;;;17.83;4.47;;;;;;;6.89;93.62;103578.22;6108652;19;20018;-75
2023/02/04 00:51:46;;;;;;;19.35;4.90;;;;;;;6.88;94.03;103580.84;6107761;19;20020;-76
2023/02/04 00:53:51;;;;;;;18.42;5.10;;;;;;;6.86;94.38;103577.31;6106218;19;20010;-76
2023/02/04 00:55:58;;;;;;;18.05;4.70;;;;;;;6.86;93.92;103577.31;6110369;19;20010;-74
2023/02/04 00:58:03;;;;;;;17.85;5.10;;;;;;;6.88;93.79;103581.72;6105857;19;20039;-74
2023/02/04 01:00:10;;;;;;;14.60;4.95;;;;;;;6.91;93.94;103583.50;6107849;19;20023;-74
2023/02/04 01:02:15;;;;;;;14.55;4.78;;;;;;;6.90;93.70;103587.84;6107068;19;20090;-76
2023/02/04 01:04:22;;;;;;;14.43;4.07;;;;;;;6.90;93.88;103587.84;6107974;19;20476;-76
2023/02/04 01:06:27;;;;;;;13.95;4.13;;;;;;;6.91;93.64;103584.38;6106960;19;20495;-77
2023/02/04 01:08:32;;;;;;;14.38;4.38;;;;;;;6.91;93.78;103592.22;6104986;19;20015;-77
2023/02/04 01:10:40;;;;;;;11.63;3.83;;;;;;;6.91;93.69;103586.13;6108757;19;20034;-76
2023/02/04 01:12:48;;;;;;;12.88;4.43;;;;;;;6.89;94.15;103580.84;6107942;19;20021;-77
2023/02/04 01:14:53;;;;;;;15.77;4.63;;;;;;;6.89;94.45;103579.97;6109134;19;20010;-77
2023/02/04 01:16:58;;;;;;;9.32;3.63;;;;;;;6.90;94.14;103590.47;6107047;19;20011;-78
2023/02/04 01:19:03;;;;;;;14.60;4.68;;;;;;;6.91;94.13;103591.34;6104779;19;20487;-74
2023/02/04 01:21:08;;;;;;;14.20;4.43;;;;;;;6.92;94.06;103588.72;6106975;19;20018;-75
2023/02/04 01:23:14;;;;;;;12.93;5.28;;;;;;;6.91;94.15;103589.59;6106032;19;20022;-76
2023/02/04 01:25:19;;;;;;;15.63;4.80;;;;;;;6.92;94.14;103590.47;6106154;19;20014;-76
2023/02/04 01:27:24;;;;;;;14.95;4.07;;;;;;;6.92;94.15;103593.09;6103892;19;20074;-75
2023/02/04 01:29:31;;;;;;;15.07;4.00;;;;;;;6.93;94.45;103593.13;6107676;19;20007;-76
2023/02/04 01:31:36;;;;;;;12.70;3.88;;;;;;;6.94;94.00;103594.00;6105170;19;20017;-76
2023/02/04 01:33:42;;;;;;;11.63;3.75;;;;;;;6.96;94.02;103597.53;6106257;19;20010;-76
2023/02/04 01:35:49;;;;;;;15.88;4.55;;;;;;;6.96;94.16;103602.75;6104581;19;20022;-76
2023/02/04 01:37:54;;;;;;;12.93;4.28;;;;;;;6.96;94.37;103603.63;6102677;19;20044;-75
2023/02/04 01:39:59;;;;;;;14.85;4.57;;;;;;;6.94;94.52;103615.78;6107463;19;20463;-76
2023/02/04 01:42:04;;;;;;;15.35;4.32;;;;;;;6.95;94.52;103603.59;6105517;19;20107;-75
2023/02/04 01:44:09;;;;;;;16.08;4.85;;;;;;;6.94;94.27;103614.91;6109731;19;20058;-77
2023/02/04 01:46:18;;;;;;;14.40;4.35;;;;;;;6.94;94.22;103620.16;6110318;19;20024;-77
2023/02/04 01:48:24;;;;;;;17.33;4.70;;;;;;;6.94;94.53;103623.63;6112646;19;20023;-77
2023/02/04 01:50:29;;;;;;;14.80;5.22;;;;;;;6.95;94.48;103617.56;6112175;19;20002;-76
2023/02/04 01:52:41;;;;;;;12.75;4.25;;;;;;;6.96;94.18;103614.09;6108218;19;20018;-76
2023/02/04 01:54:48;;;;;;;14.98;5.00;;;;;;;6.97;94.07;103620.19;6108286;19;20023;-76
2023/02/04 01:56:54;;;;;;;14.02;4.65;;;;;;;6.97;94.03;103614.97;6108246;19;20010;-77
2023/02/04 01:59:02;;;;;;;17.17;4.30;;;;;;;6.98;94.21;103624.59;6108212;19;20005;-77
2023/02/04 02:01:13;;;;;;;15.93;4.05;;;;;;;6.96;93.93;103624.56;6107091;19;20070;-77
2023/02/04 02:03:20;;;;;;;12.68;4.25;;;;;;;6.99;94.09;103626.34;6107305;19;20682;-77
2023/02/04 02:05:28;;;;;;;12.15;3.95;;;;;;;6.97;94.00;103628.03;6107536;19;20039;-76
2023/02/04 02:07:33;;;;;;;17.95;4.00;;;;;;;6.98;93.91;103629.81;6105944;19;20738;-77
2023/02/04 02:09:41;;;;;;;19.70;3.75;;;;;;;6.94;93.80;103626.25;6104544;19;20015;-77
2023/02/04 02:11:46;;;;;;;12.45;3.55;;;;;;;6.95;94.00;103628.03;6104864;19;20014;-77
2023/02/04 02:13:51;;;;;;;15.85;3.03;;;;;;;6.94;93.88;103631.47;6103945;19;20026;-77
2023/02/04 02:15:56;;;;;;;18.10;4.10;;;;;;;6.94;93.91;103631.47;6105017;19;20268;-77
2023/02/04 02:18:01;;;;;;;19.30;4.10;;;;;;;6.92;93.63;103634.91;6104090;19;20039;-76
2023/02/04 02:20:12;;;;;;;17.52;3.53;;;;;;;6.90;93.60;103628.78;6104023;19;20007;-77
2023/02/04 02:22:25;;;;;;;11.80;3.05;;;;;;;6.89;93.39;103635.72;6101168;19;21154;-77
2023/02/04 02:24:36;;;;;;;18.48;3.67;;;;;;;6.91;93.25;103641.88;6104126;19;20014;-77
2023/02/04 02:26:41;;;;;;;20.73;4.00;;;;;;;6.90;93.31;103641.84;6104245;19;20257;-76
2023/02/04 02:28:47;;;;;;;23.40;5.25;;;;;;;6.88;93.36;103646.19;6106071;19;20349;-77
2023/02/04 02:30:53;;;;;;;19.58;4.22;;;;;;;6.90;93.67;103639.22;6105179;19;20010;-77
2023/02/04 02:32:59;;;;;;;13.50;3.53;;;;;;;6.89;93.46;103648.81;6105092;19;20010;-77
2023/02/04 02:35:05;;;;;;;15.70;4.28;;;;;;;6.88;93.23;103652.28;6102840;19;20014;-77
2023/02/04 02:37:10;;;;;;;18.67;4.07;;;;;;;6.85;93.26;103647.00;6102888;19;20042;-77
2023/02/04 02:39:15;;;;;;;18.27;4.05;;;;;;;6.84;93.26;103655.66;6105204;19;20036;-79
2023/02/04 02:41:23;;;;;;;16.13;3.22;;;;;;;6.83;93.26;103653.91;6103031;19;20356;-77
2023/02/04 02:43:29;;;;;;;16.02;4.15;;;;;;;6.78;93.51;103658.16;6106985;19;20014;-77
2023/02/04 02:45:35;;;;;;;13.57;3.22;;;;;;;6.80;92.97;103659.97;6105901;19;20007;-77
2023/02/04 02:47:40;;;;;;;16.45;4.43;;;;;;;6.77;93.24;103662.53;6104376;19;20017;-77
2023/02/04 02:49:47;;;;;;;17.40;3.80;;;;;;;6.77;93.45;103656.41;6104670;19;20020;-77
2023/02/04 02:51:52;;;;;;;17.80;3.22;;;;;;;6.77;93.39;103657.28;6104626;19;20014;-77
2023/02/04 02:53:58;;;;;;;18.88;3.92;;;;;;;6.77;93.34;103659.91;6101923;19;20007;-77
2023/02/04 02:56:04;;;;;;;17.60;4.30;;;;;;;6.78;93.25;103663.41;6100572;19;20460;-77
2023/02/04 02:58:20;;;;;;;15.90;3.33;;;;;;;6.78;93.42;103658.16;6103379;19;20027;-77
2023/02/04 03:00:28;;;;;;;14.52;3.85;;;;;;;6.76;93.40;103655.50;6103836;19;20325;-77
2023/02/04 03:02:33;;;;;;;11.68;3.22;;;;;;;6.75;93.28;103656.38;6105187;19;20409;-77
2023/02/04 03:04:49;;;;;;;17.48;3.22;;;;;;;6.73;93.21;103665.03;6105089;19;20015;-77
2023/02/04 03:06:55;;;;;;;18.08;3.92;;;;;;;6.72;93.54;103665.91;6104210;19;20006;-77
2023/02/04 03:09:01;;;;;;;12.95;3.00;;;;;;;6.72;93.34;103665.91;6103969;19;20023;-76
2023/02/04 03:11:07;;;;;;;12.27;3.38;;;;;;;6.70;93.49;103662.34;6105419;19;20002;-76
2023/02/04 03:13:16;;;;;;;9.20;2.40;;;;;;;6.68;93.42;103656.22;6103014;19;20014;-76
2023/02/04 03:15:21;;;;;;;13.15;3.95;;;;;;;6.70;93.41;103662.34;6102735;19;20023;-76
2023/02/04 03:17:27;;;;;;;18.08;3.53;;;;;;;6.70;93.73;103664.97;6102461;19;20024;-76
2023/02/04 03:19:32;;;;;;;14.05;3.45;;;;;;;6.70;93.57;103664.97;6102553;19;20010;-76
2023/02/04 03:21:40;;;;;;;13.15;3.03;;;;;;;6.70;93.67;103668.47;6104874;19;20074;-76
2023/02/04 03:23:45;;;;;;;15.35;3.90;;;;;;;6.69;93.65;103657.97;6103868;19;20066;-78
2023/02/04 03:25:54;;;;;;;15.75;3.17;;;;;;;6.69;93.66;103665.81;6102303;19;20429;-76
2023/02/04 03:28:00;;;;;;;12.88;3.30;;;;;;;6.70;93.48;103659.75;6102518;19;20027;-76
2023/02/04 03:30:09;;;;;;;14.00;3.22;;;;;;;6.69;93.83;103666.72;6097572;19;20593;-75
2023/02/04 03:32:14;;;;;;;13.55;3.20;;;;;;;6.69;93.68;103665.81;6104957;19;20532;-76
2023/02/04 03:34:19;;;;;;;10.93;3.10;;;;;;;6.67;94.12;103667.53;6104622;19;20464;-77
2023/02/04 03:36:24;;;;;;;16.85;4.00;;;;;;;6.66;93.91;103666.66;6103336;19;20431;-76
2023/02/04 03:38:29;;;;;;;16.60;3.42;;;;;;;6.66;93.80;103660.50;6098932;19;20298;-77
2023/02/04 03:40:34;;;;;;;16.55;3.28;;;;;;;6.63;93.89;103657.84;6102735;19;20460;-77
2023/02/04 03:42:40;;;;;;;10.95;2.80;;;;;;;6.62;93.70;103661.31;6100148;19;20080;-77
2023/02/04 03:44:45;;;;;;;13.25;2.90;;;;;;;6.59;94.01;103667.38;6103669;19;20039;-78
2023/02/04 03:46:54;;;;;;;14.07;3.35;;;;;;;6.58;93.92;103656.03;6101027;19;20054;-78
2023/02/04 03:48:59;;;;;;;9.48;2.53;;;;;;;6.55;93.94;103657.69;6102459;19;20003;-75
2023/02/04 03:51:04;;;;;;;10.43;2.72;;;;;;;6.52;93.75;103658.50;6103085;19;20082;-78
2023/02/04 03:53:09;;;;;;;12.68;3.03;;;;;;;6.50;93.99;103649.75;6100287;19;20349;-78
2023/02/04 03:55:14;;;;;;;11.93;3.10;;;;;;;6.46;94.03;103647.03;6103710;19;20021;-76
2023/02/04 03:57:19;;;;;;;11.07;3.30;;;;;;;6.45;93.80;103656.63;6102688;19;20517;-76
2023/02/04 03:59:25;;;;;;;17.33;3.30;;;;;;;6.43;93.90;103657.44;6102817;19;20011;-78
2023/02/04 04:01:30;;;;;;;11.10;2.33;;;;;;;6.42;93.56;103651.31;6101021;19;20044;-78
2023/02/04 04:03:39;;;;;;;10.15;3.53;;;;;;;6.38;93.99;103646.88;6101794;19;20406;-77
2023/02/04 04:05:46;;;;;;;9.30;2.63;;;;;;;6.36;93.98;103645.94;6100607;19;20147;-76
2023/02/04 04:07:51;;;;;;;11.20;2.95;;;;;;;6.32;94.02;103645.00;6104029;19;20696;-76
2023/02/04 04:09:56;;;;;;;13.30;3.38;;;;;;;6.26;93.85;103639.63;6104559;19;20261;-78
2023/02/04 04:12:02;;;;;;;14.93;3.10;;;;;;;6.25;94.06;103647.44;6103987;19;20503;-76
2023/02/04 04:14:10;;;;;;;15.75;3.92;;;;;;;6.22;94.01;103652.59;6076945;19;20043;-76
2023/02/04 04:16:15;;;;;;;18.30;3.40;;;;;;;6.19;94.28;103678.63;6102391;19;20414;-76
2023/02/04 04:18:20;;;;;;;13.52;3.65;;;;;;;6.15;94.55;103678.56;6101940;19;20015;-79
2023/02/04 04:20:28;;;;;;;13.70;3.15;;;;;;;6.13;94.65;103680.28;6100774;19;20007;-75
2023/02/04 04:22:36;;;;;;;12.57;3.25;;;;;;;6.11;94.59;103687.19;6102633;19;20011;-76
2023/02/04 04:24:41;;;;;;;14.45;3.90;;;;;;;6.11;94.52;103687.19;6102195;19;20429;-76
2023/02/04 04:26:46;;;;;;;20.08;4.03;;;;;;;6.15;94.73;103694.22;6103584;19;20015;-76
2023/02/04 04:28:52;;;;;;;13.10;3.38;;;;;;;6.18;94.60;103702.97;6102060;19;20006;-77
2023/02/04 04:30:58;;;;;;;10.95;3.10;;;;;;;6.17;94.32;103704.72;6103565;19;20457;-76
2023/02/04 04:33:03;;;;;;;14.88;3.45;;;;;;;6.21;94.97;103703.03;6102295;19;20018;-76
2023/02/04 04:35:09;;;;;;;10.80;3.13;;;;;;;6.21;94.79;103698.69;6102885;19;20365;-76
2023/02/04 04:37:17;;;;;;;17.33;3.38;;;;;;;6.23;94.93;103707.47;6102880;19;20014;-76
2023/02/04 04:39:22;;;;;;;14.82;2.97;;;;;;;6.26;95.01;103709.25;6104483;19;20018;-76
2023/02/04 04:41:27;;;;;;;10.73;3.13;;;;;;;6.28;95.20;103705.84;6105638;19;20033;-76
2023/02/04 04:43:32;;;;;;;9.30;2.65;;;;;;;6.29;94.76;103712.84;6103110;19;20144;-76
2023/02/04 04:45:39;;;;;;;16.95;3.25;;;;;;;6.29;94.76;103702.41;6106786;19;20021;-75
2023/02/04 04:47:44;;;;;;;12.00;2.80;;;;;;;6.31;95.03;103705.91;6105627;19;20472;-76
2023/02/04 04:49:49;;;;;;;8.55;3.08;;;;;;;6.31;94.69;103705.91;6106807;19;20043;-76
2023/02/04 04:51:55;;;;;;;9.60;2.53;;;;;;;6.33;95.03;103701.59;6105498;19;20126;-76
2023/02/04 04:54:03;;;;;;;14.57;3.58;;;;;;;6.34;94.95;103705.97;6101797;19;20011;-76
2023/02/04 04:56:08;;;;;;;13.60;3.42;;;;;;;6.36;95.13;103713.84;6099208;19;20011;-76
2023/02/04 04:58:14;;;;;;;14.27;3.08;;;;;;;6.39;94.83;103711.31;6101399;19;20018;-76
2023/02/04 05:00:20;;;;;;;14.38;3.47;;;;;;;6.39;95.06;103716.53;6109525;19;20491;-75
2023/02/04 05:02:25;;;;;;;13.45;3.10;;;;;;;6.41;95.12;103717.47;6105924;19;20031;-77
2023/02/04 05:04:30;;;;;;;8.90;3.15;;;;;;;6.44;94.68;103729.72;6108558;19;20013;-76
2023/02/04 05:06:35;;;;;;;10.88;3.28;;;;;;;6.44;94.67;103727.97;6103922;19;20149;-77
2023/02/04 05:08:40;;;;;;;11.43;2.60;;;;;;;6.45;94.80;103724.53;6108468;19;20006;-77
2023/02/04 05:10:48;;;;;;;14.73;3.47;;;;;;;6.47;95.02;103721.94;6107131;19;20015;-75
2023/02/04 05:12:53;;;;;;;12.25;3.35;;;;;;;6.46;94.54;103730.63;6106670;19;20109;-76
2023/02/04 05:14:59;;;;;;;14.80;4.90;;;;;;;6.46;94.70;103726.28;6106851;19;20557;-78
2023/02/04 05:17:07;;;;;;;8.90;3.30;;;;;;;6.46;94.73;103726.28;6106824;19;20566;-76
2023/02/04 05:19:12;;;;;;;12.95;3.00;;;;;;;6.46;95.21;103725.41;6108310;19;20014;-76
2023/02/04 05:21:18;;;;;;;13.73;3.38;;;;;;;6.45;95.26;103719.31;6104206;19;20010;-75
2023/02/04 05:23:23;;;;;;;11.85;3.17;;;;;;;6.45;95.22;103723.63;6106112;19;20010;-76
2023/02/04 05:25:31;;;;;;;12.52;4.30;;;;;;;6.44;95.30;103721.88;6098504;19;20014;-76
2023/02/04 05:27:39;;;;;;;14.70;3.30;;;;;;;6.45;95.54;103713.19;6104995;19;20015;-76
2023/02/04 05:29:44;;;;;;;12.25;3.05;;;;;;;6.45;95.57;103719.31;6107547;19;20010;-76
2023/02/04 05:31:49;;;;;;;8.20;2.72;;;;;;;6.44;94.99;103725.38;6107364;19;20011;-76
2023/02/04 05:33:55;;;;;;;11.65;3.42;;;;;;;6.45;94.90;103724.53;6107053;19;20003;-76
2023/02/04 05:36:01;;;;;;;13.50;3.15;;;;;;;6.47;94.92;103717.59;6106642;19;20039;-75
2023/02/04 05:38:06;;;;;;;11.00;3.15;;;;;;;6.47;95.26;103720.19;6103600;19;20017;-75
2023/02/04 05:40:12;;;;;;;12.38;3.45;;;;;;;6.47;94.94;103719.31;6105404;19;20111;-76
2023/02/04 05:42:17;;;;;;;12.75;4.07;;;;;;;6.47;95.31;103720.19;6107334;19;20021;-76
2023/02/04 05:44:25;;;;;;;13.93;3.83;;;;;;;6.49;95.16;103725.47;6103021;19;20092;-76
2023/02/04 05:46:31;;;;;;;11.10;3.80;;;;;;;6.51;95.69;103724.66;6106485;19;20045;-76
2023/02/04 05:48:36;;;;;;;12.20;3.47;;;;;;;6.50;95.42;103725.53;6105549;19;20555;-76
2023/02/04 05:50:41;;;;;;;15.93;3.53;;;;;;;6.52;95.37;103729.03;6107003;19;20007;-76
2023/02/04 05:52:46;;;;;;;12.45;3.40;;;;;;;6.52;95.32;103734.25;6104988;19;20044;-76
2023/02/04 05:54:51;;;;;;;14.50;3.80;;;;;;;6.52;95.17;103728.16;6107077;19;20016;-76
2023/02/04 05:56:56;;;;;;;13.93;3.08;;;;;;;6.54;95.20;103736.91;6105644;19;20395;-77
2023/02/04 05:59:01;;;;;;;11.18;3.10;;;;;;;6.54;95.16;103734.31;6106754;19;20097;-76
2023/02/04 06:01:08;;;;;;;10.80;3.83;;;;;;;6.56;95.79;103732.63;6105005;19;20014;-76
2023/02/04 06:03:18;;;;;;;9.45;3.53;;;;;;;6.56;95.30;103738.72;6108269;19;20014;-76
2023/02/04 06:05:23;;;;;;;13.73;3.85;;;;;;;6.59;95.24;103743.13;6102156;19;20098;-76
2023/02/04 06:07:29;;;;;;;10.70;3.63;;;;;;;6.59;95.36;103741.41;6106415;19;20003;-77
2023/02/04 06:09:35;;;;;;;13.65;4.38;;;;;;;6.59;95.72;103746.63;6105076;19;20070;-76
2023/02/04 06:11:39;;;;;;;15.95;4.63;;;;;;;6.59;95.19;103744.00;6105941;19;20024;-75
2023/02/04 06:13:45;;;;;;;20.33;4.80;;;;;;;6.59;95.25;103744.00;6106689;19;20027;-76
2023/02/04 06:15:50;;;;;;;15.25;3.88;;;;;;;6.62;95.43;103750.16;6106189;19;20014;-75
2023/02/04 06:17:57;;;;;;;14.00;3.80;;;;;;;6.60;95.36;103743.16;6104703;19;20003;-76
2023/02/04 06:20:03;;;;;;;19.60;4.85;;;;;;;6.65;95.46;103751.09;6103291;19;20622;-76
2023/02/04 06:22:08;;;;;;;19.83;3.95;;;;;;;6.65;95.35;103752.84;6104710;19;20028;-76
2023/02/04 06:24:13;;;;;;;18.30;5.85;;;;;;;6.67;95.55;103756.38;6106716;19;20031;-76
2023/02/04 06:26:19;;;;;;;28.00;7.15;;;;;;;6.67;95.54;103761.59;6104106;19;20109;-76
2023/02/04 06:28:24;;;;;;;21.83;5.03;;;;;;;6.66;95.72;103759.81;6105112;19;20025;-77
2023/02/04 06:30:29;;;;;;;18.73;3.78;;;;;;;6.70;95.43;103772.13;6104248;19;20479;-77
2023/02/04 06:32:35;;;;;;;14.95;4.03;;;;;;;6.70;95.60;103769.50;6105949;19;20503;-76
2023/02/04 06:34:45;;;;;;;14.40;4.22;;;;;;;6.72;95.25;103773.03;6104636;19;20475;-77
2023/02/04 06:36:50;;;;;;;13.30;3.92;;;;;;;6.73;95.04;103774.78;6103903;19;20018;-76
2023/02/04 06:38:56;;;;;;;13.43;4.28;;;;;;;6.70;95.35;103780.84;6103975;19;20412;-75
2023/02/04 06:41:01;;;;;;;17.55;4.93;;;;;;;6.71;95.08;103779.97;6106067;19;20031;-77
2023/02/04 06:43:06;;;;;;;23.63;4.78;;;;;;;6.71;94.94;103777.34;6106078;19;20094;-77
2023/02/04 06:45:11;;;;;;;14.45;4.10;;;;;;;6.71;95.22;103779.09;6104170;19;20019;-76
2023/02/04 06:47:17;;;;;;;17.70;4.60;;;;;;;6.70;95.63;103788.66;6106347;19;20010;-76
2023/02/04 06:49:23;;;;;;;21.85;4.50;;;;;;;6.68;95.61;103784.25;6102696;19;20508;-75
2023/02/04 06:51:31;;;;;;;16.10;4.40;;;;;;;6.69;95.72;103786.00;6105430;19;20045;-76
2023/02/04 06:53:42;;;;;;;13.23;4.63;;;;;;;6.68;95.34;103786.88;6092352;19;20014;-76
2023/02/04 06:55:47;;;;;;;22.35;5.18;;;;;;;6.70;95.26;103801.75;6106645;19;20028;-76
2023/02/04 06:57:53;;;;;;;15.48;4.53;;;;;;;6.69;95.48;103793.84;6103229;19;20041;-76
2023/02/04 06:59:59;;;;;;;11.50;4.20;;;;;;;6.69;95.68;103796.47;6103001;19;20007;-77
2023/02/04 07:02:05;;;;;;;11.48;4.00;;;;;;;6.69;95.41;103797.38;6104818;19;20028;-76
2023/02/04 07:04:10;;;;;;;18.60;3.70;;;;;;;6.70;95.52;103809.56;6103016;19;20047;-76
2023/02/04 07:06:15;;;;;;;15.15;4.85;;;;;;;6.72;95.39;103804.41;6105268;19;20026;-77
2023/02/04 07:08:23;;;;;;;16.73;4.20;;;;;;;6.70;95.68;103804.34;6103049;19;20062;-77
2023/02/04 07:10:28;;;;;;;19.75;5.45;;;;;;;6.74;95.57;103800.97;6105659;19;20040;-77
2023/02/04 07:12:35;;;;;;;13.43;4.35;;;;;;;6.80;95.06;103813.28;6104722;19;20023;-76
2023/02/04 07:14:40;;;;;;;13.10;3.85;;;;;;;6.80;95.09;103800.22;6104964;19;20039;-76
2023/02/04 07:16:45;;;;;;;13.55;4.25;;;;;;;6.80;94.99;103805.47;6103194;19;20090;-75
2023/02/04 07:18:50;;;;;;;16.95;4.22;;;;;;;6.78;95.31;103807.16;6105083;19;20258;-76
2023/02/04 07:20:56;;;;;;;16.88;4.78;;;;;;;6.74;95.05;103806.19;6101971;19;20019;-76
2023/02/04 07:23:01;;;;;;;14.75;4.45;;;;;;;6.73;95.29;103814.00;6102226;19;20014;-77
2023/02/04 07:25:10;;;;;;;14.35;4.32;;;;;;;6.72;95.34;103812.25;6103933;19;20325;-76
2023/02/04 07:27:15;;;;;;;16.92;5.45;;;;;;;6.72;95.13;103804.41;6102893;19;20069;-76
2023/02/04 07:29:20;;;;;;;15.48;4.35;;;;;;;6.71;95.15;103803.50;6103981;19;20022;-77
2023/02/04 07:31:30;;;;;;;14.25;4.88;;;;;;;6.72;95.46;103801.78;6099510;19;20014;-77
2023/02/04 07:33:35;;;;;;;14.82;3.63;;;;;;;6.71;95.58;103810.44;6101892;19;20114;-77
2023/02/04 07:35:43;;;;;;;14.25;4.80;;;;;;;6.74;95.89;103810.53;6104541;19;20010;-78
2023/02/04 07:37:48;;;;;;;12.75;4.32;;;;;;;6.76;95.30;103817.53;6106378;19;20009;-77
2023/02/04 07:39:52;;;;;;;17.10;6.30;;;;;;;6.76;95.48;103814.06;6103516;19;20043;-77
2023/02/04 07:42:02;;;;;;;21.05;5.63;;;;;;;6.77;95.38;103814.09;6107496;19;20011;-76
2023/02/04 07:44:10;;;;;;;13.25;4.13;;;;;;;6.78;95.33;103812.38;6107594;19;20028;-76
2023/02/04 07:46:15;;;;;;;15.00;5.18;;;;;;;6.81;95.63;103822.88;6106269;19;20022;-77
2023/02/04 07:48:20;;;;;;;14.85;5.05;;;;;;;6.84;95.11;103820.34;6107493;19;20086;-76
2023/02/04 07:50:26;;;;;;;13.18;4.85;;;;;;;6.86;95.55;103823.00;6109620;19;20031;-76
2023/02/04 07:52:31;;;;;;;18.23;5.60;;;;;;;6.87;95.55;103822.16;6105598;19;20078;-77
2023/02/04 07:54:36;;;;;;;22.23;5.10;;;;;;;6.87;95.10;103827.38;6103529;19;20040;-77
2023/02/04 07:56:41;;;;;;;15.48;5.28;;;;;;;6.88;95.19;103830.03;6104946;19;20010;-77
2023/02/04 07:58:51;;;;;;;22.50;5.78;;;;;;;6.90;95.45;103819.59;6105584;19;20102;-76
2023/02/04 08:00:56;;;;;;;21.98;6.20;;;;;;;6.90;95.11;103823.13;6106327;19;20490;-77
2023/02/04 08:03:01;;;;;;;19.55;6.53;;;;;;;6.93;95.21;103830.16;6103829;19;20010;-77
2023/02/04 08:05:07;;;;;;;16.30;5.90;;;;;;;6.94;94.99;103832.78;6105900;19;20019;-77
2023/02/04 08:07:12;;;;;;;18.05;5.82;;;;;;;6.94;94.97;103832.78;6104466;19;20009;-76
2023/02/04 08:09:20;;;;;;;22.60;7.18;;;;;;;6.97;95.29;103822.38;6104412;19;20015;-76
2023/02/04 08:11:25;;;;;;;17.70;7.03;;;;;;;6.99;95.09;103827.66;6099813;19;20017;-76
2023/02/04 08:13:30;;;;;;;18.00;6.15;;;;;;;6.98;95.34;103837.25;6102472;19;20018;-76
2023/02/04 08:15:38;;;;;;;24.30;7.05;;;;;;;6.99;95.25;103830.28;6102985;19;20007;-77
2023/02/04 08:17:44;;;;;;;27.00;7.63;;;;;;;7.02;95.38;103838.19;6080831;19;20004;-76
2023/02/04 08:19:52;;;;;;;20.65;6.65;;;;;;;7.03;95.30;103843.47;6098846;19;20810;-78
2023/02/04 08:21:58;;;;;;;17.85;7.93;;;;;;;7.07;95.21;103846.13;6102869;19;20679;-76
2023/02/04 08:24:03;;;;;;;24.27;9.00;;;;;;;7.07;95.17;103852.25;6103136;19;20074;-76
2023/02/04 08:26:11;;;;;;;23.73;7.38;;;;;;;7.11;94.96;103853.19;6102179;19;20010;-76
2023/02/04 08:28:17;;;;;;;22.35;7.50;;;;;;;7.13;94.97;103851.50;6102560;19;20016;-76
2023/02/04 08:30:22;;;;;;;26.90;7.47;;;;;;;7.14;94.82;103855.91;6101110;19;20010;-77
2023/02/04 08:32:30;;;;;;;22.73;7.47;;;;;;;7.18;94.70;103855.09;6100591;19;20002;-76
2023/02/04 08:34:35;;;;;;;23.17;8.05;;;;;;;7.19;94.31;103857.75;6105676;19;20014;-77
2023/02/04 08:36:39;;;;;;;19.83;6.20;;;;;;;7.24;94.64;103858.75;6108245;19;20002;-77
2023/02/04 08:38:44;;;;;;;20.02;6.25;;;;;;;7.28;94.79;103859.69;6104413;19;20086;-77
2023/02/04 08:40:49;;;;;;;23.02;7.65;;;;;;;7.34;94.93;103869.41;6109004;19;20188;-77
2023/02/04 08:42:54;;;;;;;17.98;6.07;;;;;;;7.38;94.77;103868.63;6108256;19;20044;-77
2023/02/04 08:44:59;;;;;;;22.95;7.28;;;;;;;7.42;94.65;103880.91;6107839;19;20093;-77
2023/02/04 08:47:06;;;;;;;17.50;6.53;;;;;;;7.47;94.86;103887.13;6107584;19;20035;-77
2023/02/04 08:49:14;;;;;;;22.80;8.05;;;;;;;7.52;94.46;103887.22;6108219;19;20031;-77
2023/02/04 08:51:19;;;;;;;21.60;7.03;;;;;;;7.56;94.57;103884.72;6109501;19;20826;-78
2023/02/04 08:53:24;;;;;;;27.98;8.27;;;;;;;7.59;94.05;103891.75;6099634;19;20011;-77
2023/02/04 08:55:29;;;;;;;19.20;6.47;;;;;;;7.62;94.26;103889.19;6106961;19;20406;-77
2023/02/04 08:57:35;;;;;;;26.75;7.43;;;;;;;7.67;94.07;103892.78;6107290;19;20017;-77
2023/02/04 08:59:40;;;;;;;26.48;8.07;;;;;;;7.69;93.89;103886.72;6108962;19;20033;-77
2023/02/04 09:01:47;;;;;;;24.58;7.22;;;;;;;7.76;93.71;103887.72;6107438;19;20432;-76
2023/02/04 09:03:54;;;;;;;23.45;7.18;;;;;;;7.76;93.22;103890.34;6105566;19;20047;-77
2023/02/04 09:06:02;;;;;;;22.17;6.75;;;;;;;7.76;93.37;103897.31;6108228;19;20035;-76
2023/02/04 09:08:10;;;;;;;24.50;7.38;;;;;;;7.80;92.95;103894.78;6108483;19;20050;-78
2023/02/04 09:10:15;;;;;;;23.00;6.55;;;;;;;7.85;93.29;103895.78;6107211;19;20347;-77
2023/02/04 09:12:20;;;;;;;25.58;6.28;;;;;;;7.94;93.19;103892.44;6106773;19;20014;-77
2023/02/04 09:14:24;;;;;;;24.08;7.10;;;;;;;7.98;93.22;103893.38;6108242;19;20003;-77
2023/02/04 09:16:30;;;;;;;20.70;6.18;;;;;;;8.01;93.03;103896.09;6109294;19;20025;-78
2023/02/04 09:18:35;;;;;;;20.55;6.63;;;;;;;8.05;93.48;103895.28;6108313;19;20044;-78
2023/02/04 09:20:40;;;;;;;24.20;5.95;;;;;;;8.08;92.81;103892.69;6107085;19;20014;-75
2023/02/04 09:22:49;;;;;;;25.40;6.90;;;;;;;8.21;92.92;103899.94;6105827;19;20504;-79
2023/02/04 09:24:53;;;;;;;17.00;5.93;;;;;;;8.21;92.79;103899.94;6105238;19;20015;-78
2023/02/04 09:27:00;;;;;;;19.80;6.15;;;;;;;8.23;92.62;103900.84;6106463;19;20437;-78
2023/02/04 09:29:05;;;;;;;18.70;5.93;;;;;;;8.23;92.80;103895.63;6106381;19;20015;-78
2023/02/04 09:31:10;;;;;;;27.45;6.97;;;;;;;8.20;91.81;103903.41;6107325;19;20014;-78
2023/02/04 09:33:18;;;;;;;23.50;6.68;;;;;;;8.19;92.32;103909.53;6106542;19;20017;-77
2023/02/04 09:35:23;;;;;;;21.85;5.88;;;;;;;8.22;92.15;103904.34;6098784;19;20015;-77
2023/02/04 09:37:28;;;;;;;20.52;6.85;;;;;;;8.22;91.68;103904.34;6109669;19;20090;-77
2023/02/04 09:39:35;;;;;;;18.13;6.03;;;;;;;8.15;91.52;103910.31;6106712;19;20040;-77
2023/02/04 09:41:41;;;;;;;19.38;6.57;;;;;;;8.17;91.95;103915.59;6096823;19;20040;-79
2023/02/04 09:43:48;;;;;;;20.45;6.10;;;;;;;8.21;91.69;103913.03;6080892;19;20007;-78
2023/02/04 09:45:54;;;;;;;17.75;6.28;;;;;;;8.21;92.46;103923.50;6101106;19;20019;-78
2023/02/04 09:48:01;;;;;;;18.73;5.80;;;;;;;8.30;92.35;103918.47;6105636;19;20002;-77